sensor_id;sensor_type;location;lat;lon;timestamp;P1;durP1;ratioP1;P2;durP2;ratioP2
261;SDS011;114;48.260;10.988;2023-03-23T00:00:06;5.77;;;5.20;;
261;SDS011;114;48.260;10.988;2023-03-23T00:02:33;6.20;;;5.50;;
261;SDS011;114;48.260;10.988;2023-03-23T00:05:03;6.60;;;5.10;;
261;SDS011;114;48.260;10.988;2023-03-23T00:07:32;6.37;;;5.77;;
261;SDS011;114;48.260;10.988;2023-03-23T00:09:59;10.77;;;5.60;;
261;SDS011;114;48.260;10.988;2023-03-23T00:12:28;5.57;;;5.07;;
261;SDS011;114;48.260;10.988;2023-03-23T00:15:00;10.80;;;5.00;;
261;SDS011;114;48.260;10.988;2023-03-23T00:17:27;29.93;;;5.93;;
261;SDS011;114;48.260;10.988;2023-03-23T00:19:53;18.40;;;5.30;;
261;SDS011;114;48.260;10.988;2023-03-23T00:22:19;9.27;;;5.00;;
261;SDS011;114;48.260;10.988;2023-03-23T00:24:46;7.73;;;5.10;;
261;SDS011;114;48.260;10.988;2023-03-23T00:27:15;13.53;;;5.20;;
261;SDS011;114;48.260;10.988;2023-03-23T00:29:41;12.83;;;4.60;;
261;SDS011;114;48.260;10.988;2023-03-23T00:32:10;18.00;;;6.13;;
261;SDS011;114;48.260;10.988;2023-03-23T00:34:37;21.57;;;5.30;;
261;SDS011;114;48.260;10.988;2023-03-23T00:37:05;11.77;;;5.13;;
261;SDS011;114;48.260;10.988;2023-03-23T00:39:32;18.67;;;5.73;;
261;SDS011;114;48.260;10.988;2023-03-23T00:42:02;26.27;;;6.30;;
261;SDS011;114;48.260;10.988;2023-03-23T00:44:28;11.43;;;6.13;;
261;SDS011;114;48.260;10.988;2023-03-23T00:46:56;20.40;;;6.03;;
261;SDS011;114;48.260;10.988;2023-03-23T00:49:23;14.53;;;6.43;;
261;SDS011;114;48.260;10.988;2023-03-23T00:51:51;15.07;;;6.23;;
261;SDS011;114;48.260;10.988;2023-03-23T00:54:18;14.23;;;5.93;;
261;SDS011;114;48.260;10.988;2023-03-23T00:56:45;9.53;;;5.30;;
261;SDS011;114;48.260;10.988;2023-03-23T00:59:10;10.40;;;5.53;;
261;SDS011;114;48.260;10.988;2023-03-23T01:01:36;16.60;;;5.80;;
261;SDS011;114;48.260;10.988;2023-03-23T01:04:02;13.50;;;6.07;;
261;SDS011;114;48.260;10.988;2023-03-23T01:06:32;17.90;;;6.33;;
261;SDS011;114;48.260;10.988;2023-03-23T01:09:00;5.83;;;5.30;;
261;SDS011;114;48.260;10.988;2023-03-23T01:11:27;9.23;;;6.17;;
261;SDS011;114;48.260;10.988;2023-03-23T01:13:53;13.97;;;4.80;;
261;SDS011;114;48.260;10.988;2023-03-23T01:16:19;4.60;;;4.30;;
261;SDS011;114;48.260;10.988;2023-03-23T01:18:45;6.70;;;5.13;;
261;SDS011;114;48.260;10.988;2023-03-23T01:21:15;7.20;;;4.73;;
261;SDS011;114;48.260;10.988;2023-03-23T01:23:42;7.07;;;5.37;;
261;SDS011;114;48.260;10.988;2023-03-23T01:26:11;5.57;;;5.07;;
261;SDS011;114;48.260;10.988;2023-03-23T01:28:39;5.80;;;5.30;;
261;SDS011;114;48.260;10.988;2023-03-23T01:31:06;6.17;;;5.67;;
261;SDS011;114;48.260;10.988;2023-03-23T01:33:35;6.47;;;5.83;;
261;SDS011;114;48.260;10.988;2023-03-23T01:36:04;7.40;;;5.50;;
261;SDS011;114;48.260;10.988;2023-03-23T01:38:32;6.77;;;5.87;;
261;SDS011;114;48.260;10.988;2023-03-23T01:40:59;7.40;;;6.70;;
261;SDS011;114;48.260;10.988;2023-03-23T01:43:26;8.07;;;5.87;;
261;SDS011;114;48.260;10.988;2023-03-23T01:45:51;6.13;;;5.63;;
261;SDS011;114;48.260;10.988;2023-03-23T01:48:22;7.07;;;6.37;;
261;SDS011;114;48.260;10.988;2023-03-23T01:53:24;7.73;;;6.10;;
261;SDS011;114;48.260;10.988;2023-03-23T01:55:53;11.77;;;6.10;;
261;SDS011;114;48.260;10.988;2023-03-23T01:58:23;7.60;;;5.53;;
261;SDS011;114;48.260;10.988;2023-03-23T02:00:53;11.53;;;6.10;;
261;SDS011;114;48.260;10.988;2023-03-23T02:03:21;6.20;;;5.67;;
261;SDS011;114;48.260;10.988;2023-03-23T02:05:48;6.20;;;5.70;;
261;SDS011;114;48.260;10.988;2023-03-23T02:08:15;6.00;;;5.50;;
261;SDS011;114;48.260;10.988;2023-03-23T02:10:43;6.33;;;5.70;;
261;SDS011;114;48.260;10.988;2023-03-23T02:13:09;6.40;;;5.80;;
261;SDS011;114;48.260;10.988;2023-03-23T02:15:58;6.40;;;5.80;;
261;SDS011;114;48.260;10.988;2023-03-23T02:24:07;6.03;;;5.43;;
261;SDS011;114;48.260;10.988;2023-03-23T02:27:01;7.87;;;5.10;;
261;SDS011;114;48.260;10.988;2023-03-23T02:35:28;8.30;;;6.10;;
261;SDS011;114;48.260;10.988;2023-03-23T02:38:06;8.97;;;6.00;;
261;SDS011;114;48.260;10.988;2023-03-23T02:40:41;6.63;;;5.60;;
261;SDS011;114;48.260;10.988;2023-03-23T02:43:12;6.83;;;5.33;;
261;SDS011;114;48.260;10.988;2023-03-23T02:45:40;6.17;;;5.57;;
261;SDS011;114;48.260;10.988;2023-03-23T02:48:09;5.80;;;5.10;;
261;SDS011;114;48.260;10.988;2023-03-23T02:50:38;6.20;;;5.20;;
261;SDS011;114;48.260;10.988;2023-03-23T02:53:08;5.47;;;5.00;;
261;SDS011;114;48.260;10.988;2023-03-23T02:55:37;6.13;;;5.63;;
261;SDS011;114;48.260;10.988;2023-03-23T02:58:07;10.43;;;5.23;;
261;SDS011;114;48.260;10.988;2023-03-23T03:00:34;7.30;;;5.60;;
261;SDS011;114;48.260;10.988;2023-03-23T03:03:03;6.97;;;5.40;;
261;SDS011;114;48.260;10.988;2023-03-23T03:05:38;5.20;;;4.70;;
261;SDS011;114;48.260;10.988;2023-03-23T03:08:30;5.50;;;5.10;;
261;SDS011;114;48.260;10.988;2023-03-23T03:11:11;5.97;;;5.00;;
261;SDS011;114;48.260;10.988;2023-03-23T03:18:49;5.10;;;4.70;;
261;SDS011;114;48.260;10.988;2023-03-23T03:21:27;6.83;;;5.10;;
261;SDS011;114;48.260;10.988;2023-03-23T03:23:56;12.20;;;4.10;;
261;SDS011;114;48.260;10.988;2023-03-23T03:26:26;5.77;;;4.60;;
261;SDS011;114;48.260;10.988;2023-03-23T03:28:54;6.77;;;4.60;;
261;SDS011;114;48.260;10.988;2023-03-23T03:31:21;8.87;;;5.07;;
261;SDS011;114;48.260;10.988;2023-03-23T03:33:51;4.93;;;4.53;;
261;SDS011;114;48.260;10.988;2023-03-23T03:36:20;4.73;;;4.33;;
261;SDS011;114;48.260;10.988;2023-03-23T03:38:51;6.40;;;4.70;;
261;SDS011;114;48.260;10.988;2023-03-23T03:41:17;5.63;;;3.93;;
261;SDS011;114;48.260;10.988;2023-03-23T03:43:44;5.10;;;4.70;;
261;SDS011;114;48.260;10.988;2023-03-23T03:46:10;4.80;;;4.47;;
261;SDS011;114;48.260;10.988;2023-03-23T03:48:36;4.97;;;4.67;;
261;SDS011;114;48.260;10.988;2023-03-23T03:51:01;5.33;;;4.83;;
261;SDS011;114;48.260;10.988;2023-03-23T03:53:28;4.67;;;4.30;;
261;SDS011;114;48.260;10.988;2023-03-23T03:55:55;8.23;;;5.80;;
261;SDS011;114;48.260;10.988;2023-03-23T03:58:24;4.93;;;4.53;;
261;SDS011;114;48.260;10.988;2023-03-23T04:00:59;15.50;;;5.10;;
261;SDS011;114;48.260;10.988;2023-03-23T04:03:25;4.70;;;4.40;;
261;SDS011;114;48.260;10.988;2023-03-23T04:05:52;9.80;;;4.87;;
261;SDS011;114;48.260;10.988;2023-03-23T04:08:20;4.27;;;3.97;;
261;SDS011;114;48.260;10.988;2023-03-23T04:10:49;6.90;;;5.07;;
261;SDS011;114;48.260;10.988;2023-03-23T04:13:16;5.40;;;4.03;;
261;SDS011;114;48.260;10.988;2023-03-23T04:15:43;8.50;;;4.87;;
261;SDS011;114;48.260;10.988;2023-03-23T04:18:10;4.80;;;4.00;;
261;SDS011;114;48.260;10.988;2023-03-23T04:20:37;4.83;;;4.30;;
261;SDS011;114;48.260;10.988;2023-03-23T04:23:03;6.40;;;5.00;;
261;SDS011;114;48.260;10.988;2023-03-23T04:25:30;4.80;;;4.40;;
261;SDS011;114;48.260;10.988;2023-03-23T04:27:58;5.67;;;4.50;;
261;SDS011;114;48.260;10.988;2023-03-23T04:30:26;5.07;;;4.57;;
261;SDS011;114;48.260;10.988;2023-03-23T04:32:54;4.33;;;4.03;;
261;SDS011;114;48.260;10.988;2023-03-23T04:35:21;5.23;;;4.20;;
261;SDS011;114;48.260;10.988;2023-03-23T04:37:51;4.73;;;4.10;;
261;SDS011;114;48.260;10.988;2023-03-23T04:40:18;4.60;;;4.20;;
261;SDS011;114;48.260;10.988;2023-03-23T04:42:44;5.03;;;4.33;;
261;SDS011;114;48.260;10.988;2023-03-23T04:45:11;7.60;;;5.33;;
261;SDS011;114;48.260;10.988;2023-03-23T04:47:39;5.30;;;4.30;;
261;SDS011;114;48.260;10.988;2023-03-23T04:50:09;6.40;;;4.90;;
261;SDS011;114;48.260;10.988;2023-03-23T04:52:38;9.67;;;5.20;;
261;SDS011;114;48.260;10.988;2023-03-23T04:55:08;6.20;;;4.33;;
261;SDS011;114;48.260;10.988;2023-03-23T04:57:34;5.80;;;4.07;;
261;SDS011;114;48.260;10.988;2023-03-23T05:00:01;5.10;;;4.40;;
261;SDS011;114;48.260;10.988;2023-03-23T05:02:36;4.10;;;3.90;;
261;SDS011;114;48.260;10.988;2023-03-23T05:05:07;4.93;;;3.90;;
261;SDS011;114;48.260;10.988;2023-03-23T05:07:36;5.10;;;4.80;;
261;SDS011;114;48.260;10.988;2023-03-23T05:10:02;6.20;;;3.83;;
261;SDS011;114;48.260;10.988;2023-03-23T05:12:29;3.67;;;3.37;;
261;SDS011;114;48.260;10.988;2023-03-23T05:14:55;11.00;;;4.23;;
261;SDS011;114;48.260;10.988;2023-03-23T05:17:21;4.70;;;4.30;;
261;SDS011;114;48.260;10.988;2023-03-23T05:19:49;7.63;;;5.67;;
261;SDS011;114;48.260;10.988;2023-03-23T05:22:15;5.27;;;4.40;;
261;SDS011;114;48.260;10.988;2023-03-23T05:24:41;6.87;;;4.30;;
261;SDS011;114;48.260;10.988;2023-03-23T05:27:08;6.17;;;4.20;;
261;SDS011;114;48.260;10.988;2023-03-23T05:29:35;13.20;;;3.97;;
261;SDS011;114;48.260;10.988;2023-03-23T05:32:02;4.10;;;3.70;;
261;SDS011;114;48.260;10.988;2023-03-23T05:34:30;11.17;;;3.70;;
261;SDS011;114;48.260;10.988;2023-03-23T05:36:58;4.00;;;3.70;;
261;SDS011;114;48.260;10.988;2023-03-23T05:39:26;5.40;;;4.13;;
261;SDS011;114;48.260;10.988;2023-03-23T05:41:56;7.83;;;3.53;;
261;SDS011;114;48.260;10.988;2023-03-23T05:44:22;4.73;;;3.60;;
261;SDS011;114;48.260;10.988;2023-03-23T05:46:48;4.30;;;3.90;;
261;SDS011;114;48.260;10.988;2023-03-23T05:49:15;4.03;;;3.73;;
261;SDS011;114;48.260;10.988;2023-03-23T05:51:41;3.63;;;3.30;;
261;SDS011;114;48.260;10.988;2023-03-23T05:54:09;8.00;;;3.60;;
261;SDS011;114;48.260;10.988;2023-03-23T05:56:35;4.37;;;4.00;;
261;SDS011;114;48.260;10.988;2023-03-23T05:59:01;4.20;;;3.10;;
261;SDS011;114;48.260;10.988;2023-03-23T06:01:28;3.53;;;3.23;;
261;SDS011;114;48.260;10.988;2023-03-23T06:03:54;4.60;;;3.23;;
261;SDS011;114;48.260;10.988;2023-03-23T06:06:24;2.80;;;2.70;;
261;SDS011;114;48.260;10.988;2023-03-23T06:08:50;9.73;;;3.20;;
261;SDS011;114;48.260;10.988;2023-03-23T06:11:16;3.30;;;3.10;;
261;SDS011;114;48.260;10.988;2023-03-23T06:13:42;3.67;;;3.37;;
261;SDS011;114;48.260;10.988;2023-03-23T06:16:08;4.93;;;3.57;;
261;SDS011;114;48.260;10.988;2023-03-23T06:18:34;4.27;;;3.57;;
261;SDS011;114;48.260;10.988;2023-03-23T06:21:02;7.23;;;3.17;;
261;SDS011;114;48.260;10.988;2023-03-23T06:23:29;3.90;;;3.10;;
261;SDS011;114;48.260;10.988;2023-03-23T06:25:59;4.07;;;3.77;;
261;SDS011;114;48.260;10.988;2023-03-23T06:28:28;5.13;;;3.13;;
261;SDS011;114;48.260;10.988;2023-03-23T06:30:58;7.73;;;3.60;;
261;SDS011;114;48.260;10.988;2023-03-23T06:33:31;5.40;;;3.13;;
261;SDS011;114;48.260;10.988;2023-03-23T06:35:59;6.20;;;3.47;;
261;SDS011;114;48.260;10.988;2023-03-23T06:38:27;3.63;;;3.33;;
261;SDS011;114;48.260;10.988;2023-03-23T06:40:53;4.10;;;2.97;;
261;SDS011;114;48.260;10.988;2023-03-23T06:43:20;5.83;;;3.17;;
261;SDS011;114;48.260;10.988;2023-03-23T06:45:46;4.00;;;2.80;;
261;SDS011;114;48.260;10.988;2023-03-23T06:48:12;3.47;;;3.27;;
261;SDS011;114;48.260;10.988;2023-03-23T06:50:38;3.17;;;2.87;;
261;SDS011;114;48.260;10.988;2023-03-23T06:53:07;3.50;;;3.20;;
261;SDS011;114;48.260;10.988;2023-03-23T06:55:32;3.40;;;3.10;;
261;SDS011;114;48.260;10.988;2023-03-23T06:57:58;4.27;;;3.10;;
261;SDS011;114;48.260;10.988;2023-03-23T07:00:26;3.40;;;3.10;;
261;SDS011;114;48.260;10.988;2023-03-23T07:02:52;7.90;;;5.67;;
261;SDS011;114;48.260;10.988;2023-03-23T07:05:18;3.80;;;3.07;;
261;SDS011;114;48.260;10.988;2023-03-23T07:07:44;5.87;;;3.40;;
261;SDS011;114;48.260;10.988;2023-03-23T07:10:11;3.93;;;3.50;;
261;SDS011;114;48.260;10.988;2023-03-23T07:12:37;5.43;;;3.90;;
261;SDS011;114;48.260;10.988;2023-03-23T07:15:03;4.20;;;3.70;;
261;SDS011;114;48.260;10.988;2023-03-23T07:17:29;16.33;;;3.87;;
261;SDS011;114;48.260;10.988;2023-03-23T07:19:55;7.60;;;3.77;;
261;SDS011;114;48.260;10.988;2023-03-23T07:22:21;3.80;;;3.40;;
261;SDS011;114;48.260;10.988;2023-03-23T07:24:47;3.60;;;3.30;;
261;SDS011;114;48.260;10.988;2023-03-23T07:27:13;6.70;;;3.60;;
261;SDS011;114;48.260;10.988;2023-03-23T07:29:39;4.20;;;3.80;;
261;SDS011;114;48.260;10.988;2023-03-23T07:32:06;3.60;;;3.30;;
261;SDS011;114;48.260;10.988;2023-03-23T07:34:35;5.90;;;3.07;;
261;SDS011;114;48.260;10.988;2023-03-23T07:37:02;11.93;;;3.30;;
261;SDS011;114;48.260;10.988;2023-03-23T07:39:28;4.37;;;3.40;;
261;SDS011;114;48.260;10.988;2023-03-23T07:41:54;3.77;;;3.10;;
261;SDS011;114;48.260;10.988;2023-03-23T07:44:20;6.87;;;3.07;;
261;SDS011;114;48.260;10.988;2023-03-23T07:46:47;4.70;;;2.77;;
261;SDS011;114;48.260;10.988;2023-03-23T07:49:13;8.90;;;3.63;;
261;SDS011;114;48.260;10.988;2023-03-23T07:51:39;4.60;;;3.50;;
261;SDS011;114;48.260;10.988;2023-03-23T07:54:05;4.80;;;3.40;;
261;SDS011;114;48.260;10.988;2023-03-23T07:56:35;5.03;;;3.80;;
261;SDS011;114;48.260;10.988;2023-03-23T07:59:05;4.73;;;3.70;;
261;SDS011;114;48.260;10.988;2023-03-23T08:01:31;4.00;;;3.57;;
261;SDS011;114;48.260;10.988;2023-03-23T08:03:57;6.77;;;3.47;;
261;SDS011;114;48.260;10.988;2023-03-23T08:06:24;3.50;;;3.30;;
261;SDS011;114;48.260;10.988;2023-03-23T08:08:51;11.93;;;3.83;;
261;SDS011;114;48.260;10.988;2023-03-23T08:11:18;7.97;;;3.80;;
261;SDS011;114;48.260;10.988;2023-03-23T08:13:44;5.07;;;4.47;;
261;SDS011;114;48.260;10.988;2023-03-23T08:16:10;9.33;;;4.63;;
261;SDS011;114;48.260;10.988;2023-03-23T08:18:37;4.43;;;3.30;;
261;SDS011;114;48.260;10.988;2023-03-23T08:21:04;2.77;;;2.40;;
261;SDS011;114;48.260;10.988;2023-03-23T08:23:33;4.97;;;2.30;;
261;SDS011;114;48.260;10.988;2023-03-23T08:26:00;2.43;;;2.33;;
261;SDS011;114;48.260;10.988;2023-03-23T08:28:26;3.23;;;1.93;;
261;SDS011;114;48.260;10.988;2023-03-23T08:30:52;3.63;;;1.63;;
261;SDS011;114;48.260;10.988;2023-03-23T08:33:17;5.80;;;1.83;;
261;SDS011;114;48.260;10.988;2023-03-23T08:35:43;2.10;;;2.00;;
261;SDS011;114;48.260;10.988;2023-03-23T08:38:10;1.73;;;1.57;;
261;SDS011;114;48.260;10.988;2023-03-23T08:40:36;6.03;;;1.63;;
261;SDS011;114;48.260;10.988;2023-03-23T08:43:03;1.57;;;1.30;;
261;SDS011;114;48.260;10.988;2023-03-23T08:45:29;1.60;;;1.50;;
261;SDS011;114;48.260;10.988;2023-03-23T08:47:55;5.03;;;1.00;;
261;SDS011;114;48.260;10.988;2023-03-23T08:50:23;4.33;;;0.93;;
261;SDS011;114;48.260;10.988;2023-03-23T08:52:52;7.53;;;1.57;;
261;SDS011;114;48.260;10.988;2023-03-23T08:55:21;2.20;;;1.33;;
261;SDS011;114;48.260;10.988;2023-03-23T08:57:49;2.70;;;1.70;;
261;SDS011;114;48.260;10.988;2023-03-23T09:00:17;2.20;;;1.53;;
261;SDS011;114;48.260;10.988;2023-03-23T09:02:45;1.47;;;1.20;;
261;SDS011;114;48.260;10.988;2023-03-23T09:05:14;3.27;;;1.33;;
261;SDS011;114;48.260;10.988;2023-03-23T09:07:41;1.03;;;1.03;;
261;SDS011;114;48.260;10.988;2023-03-23T09:10:09;2.40;;;1.00;;
261;SDS011;114;48.260;10.988;2023-03-23T09:12:35;0.90;;;0.73;;
261;SDS011;114;48.260;10.988;2023-03-23T09:15:03;5.50;;;1.20;;
261;SDS011;114;48.260;10.988;2023-03-23T09:17:39;3.67;;;1.13;;
261;SDS011;114;48.260;10.988;2023-03-23T09:20:17;8.23;;;1.20;;
261;SDS011;114;48.260;10.988;2023-03-23T09:22:49;2.80;;;1.10;;
261;SDS011;114;48.260;10.988;2023-03-23T09:25:18;2.20;;;1.47;;
261;SDS011;114;48.260;10.988;2023-03-23T09:27:48;2.10;;;1.30;;
261;SDS011;114;48.260;10.988;2023-03-23T09:30:22;4.10;;;1.53;;
261;SDS011;114;48.260;10.988;2023-03-23T09:32:56;2.90;;;1.30;;
261;SDS011;114;48.260;10.988;2023-03-23T09:35:23;5.80;;;1.30;;
261;SDS011;114;48.260;10.988;2023-03-23T09:37:50;1.90;;;1.70;;
261;SDS011;114;48.260;10.988;2023-03-23T09:40:18;0.90;;;0.90;;
261;SDS011;114;48.260;10.988;2023-03-23T09:45:25;1.23;;;0.90;;
261;SDS011;114;48.260;10.988;2023-03-23T09:51:03;5.70;;;1.30;;
261;SDS011;114;48.260;10.988;2023-03-23T09:53:50;2.13;;;1.30;;
261;SDS011;114;48.260;10.988;2023-03-23T09:56:19;3.53;;;1.87;;
261;SDS011;114;48.260;10.988;2023-03-23T09:58:54;4.27;;;1.10;;
261;SDS011;114;48.260;10.988;2023-03-23T10:01:37;7.20;;;1.27;;
261;SDS011;114;48.260;10.988;2023-03-23T10:04:14;0.80;;;0.80;;
261;SDS011;114;48.260;10.988;2023-03-23T10:07:09;1.63;;;1.50;;
261;SDS011;114;48.260;10.988;2023-03-23T10:09:38;1.47;;;1.03;;
261;SDS011;114;48.260;10.988;2023-03-23T10:17:28;1.83;;;1.20;;
261;SDS011;114;48.260;10.988;2023-03-23T10:22:34;4.30;;;1.40;;
261;SDS011;114;48.260;10.988;2023-03-23T10:28:00;1.30;;;1.20;;
261;SDS011;114;48.260;10.988;2023-03-23T10:33:18;7.03;;;1.30;;
261;SDS011;114;48.260;10.988;2023-03-23T10:38:29;4.53;;;1.23;;
261;SDS011;114;48.260;10.988;2023-03-23T10:40:58;2.03;;;1.43;;
261;SDS011;114;48.260;10.988;2023-03-23T10:43:30;2.57;;;1.43;;
261;SDS011;114;48.260;10.988;2023-03-23T10:46:01;3.20;;;0.90;;
261;SDS011;114;48.260;10.988;2023-03-23T10:48:31;2.57;;;1.60;;
261;SDS011;114;48.260;10.988;2023-03-23T10:51:03;2.00;;;1.33;;
261;SDS011;114;48.260;10.988;2023-03-23T10:56:18;1.40;;;1.00;;
261;SDS011;114;48.260;10.988;2023-03-23T10:58:47;2.80;;;1.40;;
261;SDS011;114;48.260;10.988;2023-03-23T11:01:13;7.40;;;1.30;;
261;SDS011;114;48.260;10.988;2023-03-23T11:03:44;3.93;;;1.40;;
261;SDS011;114;48.260;10.988;2023-03-23T11:06:22;1.23;;;1.13;;
261;SDS011;114;48.260;10.988;2023-03-23T11:09:00;3.33;;;1.40;;
261;SDS011;114;48.260;10.988;2023-03-23T11:11:32;11.43;;;1.47;;
261;SDS011;114;48.260;10.988;2023-03-23T11:14:15;2.83;;;1.10;;
261;SDS011;114;48.260;10.988;2023-03-23T11:16:45;1.83;;;1.60;;
261;SDS011;114;48.260;10.988;2023-03-23T11:19:23;1.63;;;1.37;;
261;SDS011;114;48.260;10.988;2023-03-23T11:21:52;1.50;;;1.03;;
261;SDS011;114;48.260;10.988;2023-03-23T11:24:23;1.90;;;0.90;;
261;SDS011;114;48.260;10.988;2023-03-23T11:26:50;1.93;;;0.90;;
261;SDS011;114;48.260;10.988;2023-03-23T11:29:22;1.67;;;1.20;;
261;SDS011;114;48.260;10.988;2023-03-23T11:31:51;1.67;;;1.40;;
261;SDS011;114;48.260;10.988;2023-03-23T11:34:32;4.10;;;0.97;;
261;SDS011;114;48.260;10.988;2023-03-23T11:37:05;1.23;;;1.00;;
261;SDS011;114;48.260;10.988;2023-03-23T11:39:45;0.97;;;0.97;;
261;SDS011;114;48.260;10.988;2023-03-23T11:42:18;1.23;;;1.10;;
261;SDS011;114;48.260;10.988;2023-03-23T11:44:46;15.83;;;1.00;;
261;SDS011;114;48.260;10.988;2023-03-23T11:47:18;1.33;;;1.10;;
261;SDS011;114;48.260;10.988;2023-03-23T11:55:36;2.60;;;1.03;;
261;SDS011;114;48.260;10.988;2023-03-23T11:58:17;0.90;;;0.90;;
261;SDS011;114;48.260;10.988;2023-03-23T12:03:13;4.33;;;1.30;;
261;SDS011;114;48.260;10.988;2023-03-23T12:06:05;1.83;;;1.37;;
261;SDS011;114;48.260;10.988;2023-03-23T12:08:51;1.47;;;1.37;;
261;SDS011;114;48.260;10.988;2023-03-23T12:11:59;1.30;;;1.30;;
261;SDS011;114;48.260;10.988;2023-03-23T12:20:29;1.73;;;1.03;;
261;SDS011;114;48.260;10.988;2023-03-23T12:26:03;0.93;;;0.93;;
261;SDS011;114;48.260;10.988;2023-03-23T12:31:40;1.63;;;1.37;;
261;SDS011;114;48.260;10.988;2023-03-23T12:37:19;2.63;;;1.37;;
261;SDS011;114;48.260;10.988;2023-03-23T12:42:56;1.47;;;0.80;;
261;SDS011;114;48.260;10.988;2023-03-23T12:45:46;6.53;;;2.07;;
261;SDS011;114;48.260;10.988;2023-03-23T12:48:44;1.43;;;1.07;;
261;SDS011;114;48.260;10.988;2023-03-23T12:56:33;1.20;;;1.20;;
261;SDS011;114;48.260;10.988;2023-03-23T12:59:20;1.57;;;1.40;;
261;SDS011;114;48.260;10.988;2023-03-23T13:01:56;3.07;;;1.03;;
261;SDS011;114;48.260;10.988;2023-03-23T13:04:35;1.03;;;1.03;;
261;SDS011;114;48.260;10.988;2023-03-23T13:07:05;2.30;;;1.00;;
261;SDS011;114;48.260;10.988;2023-03-23T13:09:44;2.07;;;1.53;;
261;SDS011;114;48.260;10.988;2023-03-23T13:12:21;4.53;;;1.37;;
261;SDS011;114;48.260;10.988;2023-03-23T13:17:56;2.97;;;1.47;;
261;SDS011;114;48.260;10.988;2023-03-23T13:23:33;3.80;;;1.10;;
261;SDS011;114;48.260;10.988;2023-03-23T13:26:08;6.33;;;1.20;;
261;SDS011;114;48.260;10.988;2023-03-23T13:28:48;1.20;;;1.20;;
261;SDS011;114;48.260;10.988;2023-03-23T13:31:34;1.93;;;1.03;;
261;SDS011;114;48.260;10.988;2023-03-23T13:37:00;1.87;;;1.40;;
261;SDS011;114;48.260;10.988;2023-03-23T13:39:32;2.47;;;0.90;;
261;SDS011;114;48.260;10.988;2023-03-23T13:49:58;2.80;;;2.10;;
261;SDS011;114;48.260;10.988;2023-03-23T14:06:21;5.27;;;3.20;;
261;SDS011;114;48.260;10.988;2023-03-23T14:08:50;2.83;;;2.60;;
261;SDS011;114;48.260;10.988;2023-03-23T14:14:00;5.33;;;2.33;;
261;SDS011;114;48.260;10.988;2023-03-23T14:16:39;4.70;;;2.60;;
261;SDS011;114;48.260;10.988;2023-03-23T14:19:21;2.60;;;2.10;;
261;SDS011;114;48.260;10.988;2023-03-23T14:21:57;5.03;;;2.03;;
261;SDS011;114;48.260;10.988;2023-03-23T14:24:28;4.30;;;3.50;;
261;SDS011;114;48.260;10.988;2023-03-23T14:27:08;3.60;;;3.30;;
261;SDS011;114;48.260;10.988;2023-03-23T14:29:40;4.63;;;2.63;;
261;SDS011;114;48.260;10.988;2023-03-23T14:32:07;2.23;;;1.53;;
261;SDS011;114;48.260;10.988;2023-03-23T14:34:37;1.47;;;1.23;;
261;SDS011;114;48.260;10.988;2023-03-23T14:37:03;2.40;;;2.30;;
261;SDS011;114;48.260;10.988;2023-03-23T14:39:30;2.53;;;2.43;;
261;SDS011;114;48.260;10.988;2023-03-23T14:42:03;4.23;;;1.43;;
261;SDS011;114;48.260;10.988;2023-03-23T14:44:35;1.90;;;1.67;;
261;SDS011;114;48.260;10.988;2023-03-23T14:47:06;4.57;;;3.50;;
261;SDS011;114;48.260;10.988;2023-03-23T14:49:36;3.53;;;3.17;;
261;SDS011;114;48.260;10.988;2023-03-23T14:52:16;9.90;;;2.30;;
261;SDS011;114;48.260;10.988;2023-03-23T14:54:43;1.63;;;1.53;;
261;SDS011;114;48.260;10.988;2023-03-23T14:57:13;7.23;;;2.03;;
261;SDS011;114;48.260;10.988;2023-03-23T14:59:42;2.20;;;2.00;;
261;SDS011;114;48.260;10.988;2023-03-23T15:02:17;3.40;;;1.67;;
261;SDS011;114;48.260;10.988;2023-03-23T15:05:09;10.60;;;1.90;;
261;SDS011;114;48.260;10.988;2023-03-23T15:07:45;1.90;;;1.70;;
261;SDS011;114;48.260;10.988;2023-03-23T15:10:15;2.60;;;1.40;;
261;SDS011;114;48.260;10.988;2023-03-23T15:12:45;1.93;;;1.83;;
261;SDS011;114;48.260;10.988;2023-03-23T15:15:45;4.70;;;1.90;;
261;SDS011;114;48.260;10.988;2023-03-23T15:18:04;1.83;;;1.60;;
261;SDS011;114;48.260;10.988;2023-03-23T15:23:14;1.77;;;1.53;;
261;SDS011;114;48.260;10.988;2023-03-23T15:25:47;2.20;;;2.00;;
261;SDS011;114;48.260;10.988;2023-03-23T15:28:19;1.93;;;1.77;;
261;SDS011;114;48.260;10.988;2023-03-23T15:30:53;1.50;;;1.40;;
261;SDS011;114;48.260;10.988;2023-03-23T15:33:23;2.40;;;1.83;;
261;SDS011;114;48.260;10.988;2023-03-23T15:35:53;7.80;;;1.83;;
261;SDS011;114;48.260;10.988;2023-03-23T15:38:22;2.27;;;2.13;;
261;SDS011;114;48.260;10.988;2023-03-23T15:40:55;13.63;;;1.90;;
261;SDS011;114;48.260;10.988;2023-03-23T15:43:24;5.63;;;2.33;;
261;SDS011;114;48.260;10.988;2023-03-23T15:45:53;4.10;;;1.97;;
261;SDS011;114;48.260;10.988;2023-03-23T15:48:21;1.77;;;1.67;;
261;SDS011;114;48.260;10.988;2023-03-23T15:50:48;4.37;;;1.70;;
261;SDS011;114;48.260;10.988;2023-03-23T15:53:19;4.17;;;2.10;;
261;SDS011;114;48.260;10.988;2023-03-23T15:55:51;2.83;;;2.30;;
261;SDS011;114;48.260;10.988;2023-03-23T15:58:17;3.30;;;3.00;;
261;SDS011;114;48.260;10.988;2023-03-23T16:00:43;4.70;;;4.30;;
261;SDS011;114;48.260;10.988;2023-03-23T16:03:11;5.20;;;2.20;;
261;SDS011;114;48.260;10.988;2023-03-23T16:05:48;2.20;;;2.00;;
261;SDS011;114;48.260;10.988;2023-03-23T16:08:14;4.23;;;2.57;;
261;SDS011;114;48.260;10.988;2023-03-23T16:10:41;3.00;;;2.80;;
261;SDS011;114;48.260;10.988;2023-03-23T16:13:06;4.00;;;3.60;;
261;SDS011;114;48.260;10.988;2023-03-23T16:15:32;4.33;;;3.67;;
261;SDS011;114;48.260;10.988;2023-03-23T16:17:58;15.20;;;6.60;;
261;SDS011;114;48.260;10.988;2023-03-23T16:20:27;3.00;;;2.80;;
261;SDS011;114;48.260;10.988;2023-03-23T16:22:54;9.83;;;4.70;;
261;SDS011;114;48.260;10.988;2023-03-23T16:25:20;4.57;;;3.57;;
261;SDS011;114;48.260;10.988;2023-03-23T16:27:46;6.03;;;3.23;;
261;SDS011;114;48.260;10.988;2023-03-23T16:30:19;2.57;;;2.37;;
261;SDS011;114;48.260;10.988;2023-03-23T16:32:48;3.00;;;2.80;;
261;SDS011;114;48.260;10.988;2023-03-23T16:35:14;8.27;;;2.90;;
261;SDS011;114;48.260;10.988;2023-03-23T16:37:45;6.10;;;2.87;;
261;SDS011;114;48.260;10.988;2023-03-23T16:40:17;4.90;;;2.70;;
261;SDS011;114;48.260;10.988;2023-03-23T16:42:44;9.43;;;2.50;;
261;SDS011;114;48.260;10.988;2023-03-23T16:45:10;5.63;;;2.90;;
261;SDS011;114;48.260;10.988;2023-03-23T16:47:38;4.50;;;3.27;;
261;SDS011;114;48.260;10.988;2023-03-23T16:50:05;9.23;;;3.80;;
261;SDS011;114;48.260;10.988;2023-03-23T16:52:35;7.63;;;3.37;;
261;SDS011;114;48.260;10.988;2023-03-23T16:55:03;3.63;;;3.30;;
261;SDS011;114;48.260;10.988;2023-03-23T16:57:31;2.20;;;1.57;;
261;SDS011;114;48.260;10.988;2023-03-23T16:59:58;6.17;;;2.17;;
261;SDS011;114;48.260;10.988;2023-03-23T17:02:24;3.10;;;1.83;;
261;SDS011;114;48.260;10.988;2023-03-23T17:04:50;2.37;;;1.83;;
261;SDS011;114;48.260;10.988;2023-03-23T17:07:16;3.77;;;2.00;;
261;SDS011;114;48.260;10.988;2023-03-23T17:09:42;2.60;;;1.57;;
261;SDS011;114;48.260;10.988;2023-03-23T17:12:08;1.80;;;1.70;;
261;SDS011;114;48.260;10.988;2023-03-23T17:14:34;2.63;;;2.53;;
261;SDS011;114;48.260;10.988;2023-03-23T17:17:00;3.23;;;3.00;;
261;SDS011;114;48.260;10.988;2023-03-23T17:19:26;4.30;;;2.60;;
261;SDS011;114;48.260;10.988;2023-03-23T17:21:52;3.87;;;2.40;;
261;SDS011;114;48.260;10.988;2023-03-23T17:24:20;2.30;;;2.10;;
261;SDS011;114;48.260;10.988;2023-03-23T17:26:46;3.53;;;2.03;;
261;SDS011;114;48.260;10.988;2023-03-23T17:29:12;2.83;;;2.50;;
261;SDS011;114;48.260;10.988;2023-03-23T17:31:37;12.73;;;2.97;;
261;SDS011;114;48.260;10.988;2023-03-23T17:34:05;8.80;;;4.90;;
261;SDS011;114;48.260;10.988;2023-03-23T17:36:31;5.47;;;4.50;;